createdAt,value
2019-02-10T00:02:18.652Z,4.20
2019-02-10T00:04:45.384Z,4.20
2019-02-10T00:07:12.084Z,4.20
2019-02-10T00:09:38.575Z,4.20
2019-02-10T00:12:05.312Z,4.20
2019-02-10T00:14:32.048Z,4.20
2019-02-10T00:16:58.496Z,4.30
2019-02-10T00:19:25.220Z,4.30
2019-02-10T00:21:52.152Z,4.30
2019-02-10T00:24:18.912Z,4.40
2019-02-10T00:26:45.835Z,4.30
2019-02-10T00:29:12.309Z,4.30
2019-02-10T00:31:39.012Z,4.20
2019-02-10T00:34:05.744Z,4.10
2019-02-10T00:36:33.586Z,4.10
2019-02-10T00:39:00.535Z,4.00
2019-02-10T00:41:26.979Z,4.00
2019-02-10T00:43:53.937Z,4.00
2019-02-10T00:46:20.627Z,3.90
2019-02-10T00:48:47.365Z,3.90
2019-02-10T00:51:14.044Z,3.90
2019-02-10T00:53:40.528Z,3.80
2019-02-10T00:56:09.056Z,3.70
2019-02-10T00:58:35.784Z,3.80
2019-02-10T01:01:02.235Z,3.70
2019-02-10T01:03:28.684Z,3.70
2019-02-10T01:05:55.257Z,3.70
2019-02-10T01:08:21.701Z,3.90
2019-02-10T01:10:48.199Z,3.90
2019-02-10T01:13:14.768Z,3.90
2019-02-10T01:15:41.966Z,3.90
2019-02-10T01:18:08.668Z,3.90
2019-02-10T01:20:35.389Z,3.90
2019-02-10T01:23:02.352Z,3.90
2019-02-10T01:25:29.303Z,3.90
2019-02-10T01:27:56.236Z,3.90
2019-02-10T01:30:22.965Z,4.00
2019-02-10T01:32:49.656Z,4.00
2019-02-10T01:35:16.728Z,3.90
2019-02-10T01:37:43.408Z,3.90
2019-02-10T01:40:10.120Z,3.90
2019-02-10T01:42:37.628Z,3.90
2019-02-10T01:45:04.812Z,3.90
2019-02-10T01:47:31.259Z,4.00
2019-02-10T01:49:57.748Z,4.00
2019-02-10T01:52:24.199Z,4.00
2019-02-10T01:54:50.927Z,4.00
2019-02-10T01:57:17.605Z,4.00
2019-02-10T01:59:44.407Z,4.00
2019-02-10T02:02:11.369Z,4.10
2019-02-10T02:04:38.667Z,4.10
2019-02-10T02:07:05.415Z,4.10
2019-02-10T02:09:32.136Z,4.10
2019-02-10T02:11:58.836Z,4.20
2019-02-10T02:14:25.548Z,4.10
2019-02-10T02:16:52.247Z,4.10
2019-02-10T02:19:19.177Z,4.10
2019-02-10T02:21:45.904Z,4.10
2019-02-10T02:24:12.636Z,4.10
2019-02-10T02:26:39.349Z,4.20
2019-02-10T02:29:05.796Z,4.10
2019-02-10T02:31:32.600Z,4.10
2019-02-10T02:33:59.524Z,3.90
2019-02-10T02:36:26.227Z,3.70
2019-02-10T02:38:52.956Z,3.60
2019-02-10T02:41:19.484Z,3.50
2019-02-10T02:43:46.415Z,3.40
2019-02-10T02:46:12.896Z,3.40
2019-02-10T02:48:39.349Z,3.30
2019-02-10T02:51:06.058Z,3.20
2019-02-10T02:53:32.504Z,3.10
2019-02-10T02:55:59.435Z,3.00
2019-02-10T02:58:26.115Z,2.80
2019-02-10T03:00:52.880Z,2.70
2019-02-10T03:03:19.575Z,2.70
2019-02-10T03:05:46.052Z,2.60
2019-02-10T03:08:12.499Z,2.70
2019-02-10T03:10:39.084Z,2.90
2019-02-10T03:13:05.776Z,3.10
2019-02-10T03:15:32.516Z,3.40
2019-02-10T03:17:59.216Z,3.50
2019-02-10T03:20:25.924Z,3.60
2019-02-10T03:22:52.600Z,3.70
2019-02-10T03:25:19.572Z,3.70
2019-02-10T03:27:46.020Z,3.80
2019-02-10T03:30:12.760Z,3.90
2019-02-10T03:32:39.316Z,4.00
2019-02-10T03:35:06.124Z,4.10
2019-02-10T03:37:32.617Z,4.10
2019-02-10T03:39:59.251Z,4.10
2019-02-10T03:42:25.997Z,4.20
2019-02-10T03:44:52.690Z,4.10
2019-02-10T03:47:21.926Z,4.20
2019-02-10T03:49:48.027Z,4.20
2019-02-10T03:52:15.885Z,4.20
2019-02-10T03:54:42.337Z,4.20
2019-02-10T03:57:09.511Z,4.20
2019-02-10T03:59:35.959Z,4.10
2019-02-10T04:02:02.481Z,4.10
2019-02-10T04:04:29.176Z,4.10
2019-02-10T04:06:55.665Z,4.10
2019-02-10T04:09:22.381Z,4.00
2019-02-10T04:11:48.943Z,4.00
2019-02-10T04:14:15.625Z,4.00
2019-02-10T04:16:42.360Z,4.00
2019-02-10T04:19:09.035Z,3.90
2019-02-10T04:21:35.755Z,3.90
2019-02-10T04:24:02.452Z,3.80
2019-02-10T04:26:29.160Z,3.80
2019-02-10T04:28:55.838Z,3.80
2019-02-10T04:31:22.568Z,3.80
2019-02-10T04:33:49.496Z,3.90
2019-02-10T04:36:16.456Z,3.90
2019-02-10T04:38:43.381Z,3.90
2019-02-10T04:41:10.336Z,3.80
2019-02-10T04:43:37.021Z,3.90
2019-02-10T04:46:03.745Z,3.90
2019-02-10T04:48:30.439Z,4.00
2019-02-10T04:50:57.396Z,4.00
2019-02-10T04:53:23.843Z,4.10
2019-02-10T04:56:19.003Z,4.10
2019-02-10T04:58:45.774Z,4.20
2019-02-10T05:01:12.308Z,4.20
2019-02-10T05:03:38.751Z,4.20
2019-02-10T05:06:05.204Z,4.20
2019-02-10T05:08:31.917Z,4.20
2019-02-10T05:10:58.685Z,4.20
2019-02-10T05:13:25.648Z,4.10
2019-02-10T05:15:52.319Z,4.10
2019-02-10T05:18:18.797Z,4.20
2019-02-10T05:20:45.252Z,4.20
2019-02-10T05:23:11.735Z,4.10
2019-02-10T05:25:38.438Z,4.10
2019-02-10T05:28:06.291Z,4.10
2019-02-10T05:30:32.989Z,4.10
2019-02-10T05:32:59.697Z,4.10
2019-02-10T05:35:26.385Z,4.10
2019-02-10T05:37:53.103Z,4.10
2019-02-10T05:40:19.547Z,4.10
2019-02-10T05:42:46.518Z,4.20
2019-02-10T05:45:13.214Z,4.20
2019-02-10T05:47:40.393Z,4.20
2019-02-10T05:50:07.670Z,4.20
2019-02-10T05:52:34.628Z,4.30
2019-02-10T05:55:01.332Z,4.30
2019-02-10T05:57:27.905Z,4.30
2019-02-10T05:59:54.809Z,4.30
2019-02-10T06:02:31.039Z,4.30
2019-02-10T06:05:01.660Z,4.40
2019-02-10T06:07:30.288Z,4.50
2019-02-10T06:09:56.987Z,4.50
2019-02-10T06:12:23.692Z,4.50
2019-02-10T06:14:50.397Z,4.60
2019-02-10T06:17:17.129Z,4.60
2019-02-10T06:19:44.272Z,4.60
2019-02-10T06:22:10.975Z,4.60
2019-02-10T06:24:37.906Z,4.60
2019-02-10T06:27:04.632Z,4.60
2019-02-10T06:29:31.555Z,4.50
2019-02-10T06:31:58.515Z,4.50
2019-02-10T06:34:24.971Z,4.40
2019-02-10T06:36:52.157Z,4.30
2019-02-10T06:39:18.863Z,4.10
2019-02-10T06:41:45.808Z,4.10
2019-02-10T06:44:12.759Z,4.00
2019-02-10T06:46:39.435Z,3.90
2019-02-10T06:49:06.148Z,3.90
2019-02-10T06:51:32.854Z,3.90
2019-02-10T06:53:59.568Z,3.90
2019-02-10T06:56:26.267Z,3.80
2019-02-10T06:58:52.976Z,3.70
2019-02-10T07:01:24.154Z,3.70
2019-02-10T07:03:57.122Z,3.70
2019-02-10T07:06:23.605Z,3.70
2019-02-10T07:08:50.316Z,3.70
2019-02-10T07:11:17.244Z,3.70
2019-02-10T07:13:44.983Z,3.70
2019-02-10T07:16:29.779Z,3.80
2019-02-10T07:19:14.739Z,3.80
2019-02-10T07:21:43.020Z,3.80
2019-02-10T07:24:41.374Z,3.80
2019-02-10T07:27:10.304Z,3.80
2019-02-10T07:29:47.404Z,3.80
2019-02-10T07:32:17.067Z,3.80
2019-02-10T07:35:15.592Z,3.80
2019-02-10T07:37:44.968Z,3.90
2019-02-10T07:40:20.019Z,3.90
2019-02-10T07:42:57.589Z,3.80
2019-02-10T07:45:32.271Z,3.90
2019-02-10T07:48:20.079Z,3.90
2019-02-10T07:50:54.924Z,3.90
2019-02-10T07:53:34.756Z,4.00
2019-02-10T07:56:19.565Z,4.00
2019-02-10T07:59:05.928Z,4.00
2019-02-10T08:01:43.620Z,4.10
2019-02-10T08:04:39.102Z,4.10
2019-02-10T08:07:40.419Z,4.20
2019-02-10T08:10:12.566Z,4.30
2019-02-10T08:13:16.696Z,4.30
2019-02-10T08:16:21.085Z,4.40
2019-02-10T08:18:57.956Z,4.50
2019-02-10T08:21:37.653Z,4.60
2019-02-10T08:24:21.487Z,4.60
2019-02-10T08:27:22.783Z,4.70
2019-02-10T08:29:54.019Z,4.70
2019-02-10T08:32:40.184Z,4.80
2019-02-10T08:35:20.740Z,4.80
2019-02-10T08:37:54.063Z,4.90
2019-02-10T08:40:43.862Z,4.90
2019-02-10T08:43:15.831Z,4.90
2019-02-10T08:45:54.563Z,4.90
2019-02-10T08:48:39.024Z,5.00
2019-02-10T08:51:28.232Z,5.00
2019-02-10T08:53:54.683Z,5.00
2019-02-10T08:56:21.408Z,5.10
2019-02-10T08:58:48.088Z,5.10
2019-02-10T09:01:14.572Z,5.10
2019-02-10T09:03:41.052Z,5.20
2019-02-10T09:06:07.755Z,5.20
2019-02-10T09:08:34.428Z,5.30
2019-02-10T09:11:00.911Z,5.30
2019-02-10T09:13:27.816Z,5.30
2019-02-10T09:15:54.495Z,5.30
2019-02-10T09:18:21.234Z,5.40
2019-02-10T09:20:48.252Z,5.40
2019-02-10T09:23:14.964Z,5.40
2019-02-10T09:25:41.659Z,5.40
2019-02-10T09:28:08.616Z,5.50
2019-02-10T09:30:35.780Z,5.50
2019-02-10T09:33:02.489Z,5.50
2019-02-10T09:35:29.395Z,5.60
2019-02-10T09:37:55.904Z,5.60
2019-02-10T09:40:22.830Z,5.60
2019-02-10T09:42:49.759Z,5.60
2019-02-10T09:45:16.451Z,5.60
2019-02-10T09:47:43.424Z,5.70
2019-02-10T09:50:11.475Z,5.70
2019-02-10T09:52:38.439Z,5.70
2019-02-10T09:55:05.155Z,5.70
2019-02-10T09:57:31.636Z,5.80
2019-02-10T09:59:58.348Z,5.80
2019-02-10T10:02:25.068Z,5.80
2019-02-10T10:04:51.519Z,5.80
2019-02-10T10:07:18.246Z,5.80
2019-02-10T10:09:45.735Z,5.80
2019-02-10T10:12:12.701Z,5.80
2019-02-10T10:14:39.484Z,5.90
2019-02-10T10:17:06.188Z,5.90
2019-02-10T10:19:33.118Z,5.90
2019-02-10T10:21:59.876Z,6.00
2019-02-10T10:24:26.588Z,6.00
2019-02-10T10:26:53.288Z,6.10
2019-02-10T10:29:20.251Z,6.20
2019-02-10T10:31:47.408Z,6.20
2019-02-10T10:34:13.915Z,6.30
2019-02-10T10:36:40.615Z,6.30
2019-02-10T10:39:07.127Z,6.40
2019-02-10T10:41:34.040Z,6.40
2019-02-10T10:44:00.768Z,6.50
2019-02-10T10:46:27.215Z,6.50
2019-02-10T10:48:54.168Z,6.60
2019-02-10T10:51:20.623Z,6.60
2019-02-10T10:53:47.092Z,6.60
2019-02-10T10:56:14.020Z,6.70
2019-02-10T10:58:40.496Z,6.80
2019-02-10T11:01:07.199Z,6.80
2019-02-10T11:03:34.176Z,6.80
2019-02-10T11:06:00.865Z,6.90
2019-02-10T11:08:27.568Z,6.90
2019-02-10T11:10:54.500Z,7.00
2019-02-10T11:13:21.442Z,7.10
2019-02-10T11:15:48.368Z,7.20
2019-02-10T11:18:15.075Z,7.30
2019-02-10T11:20:42.072Z,7.40
2019-02-10T11:23:09.023Z,7.50
2019-02-10T11:25:35.952Z,7.60
2019-02-10T11:28:02.678Z,7.70
2019-02-10T11:30:29.125Z,7.80
2019-02-10T11:32:56.076Z,7.90
2019-02-10T11:35:22.776Z,7.80
2019-02-10T11:37:49.483Z,7.80
2019-02-10T11:40:16.889Z,7.80
2019-02-10T11:42:43.587Z,7.70
2019-02-10T11:45:10.072Z,7.60
2019-02-10T11:47:36.777Z,7.50
2019-02-10T11:50:03.644Z,7.50
2019-02-10T11:52:30.091Z,7.50
2019-02-10T11:54:57.052Z,7.40
2019-02-10T11:57:23.515Z,7.30
2019-02-10T11:59:50.480Z,7.30
2019-02-10T12:02:17.156Z,7.30
2019-02-10T12:04:44.111Z,7.20
2019-02-10T12:07:10.807Z,7.10
2019-02-10T12:09:37.805Z,7.00
2019-02-10T12:12:04.508Z,6.90
2019-02-10T12:14:31.239Z,6.90
2019-02-10T12:16:58.159Z,6.80
2019-02-10T12:19:24.869Z,6.80
2019-02-10T12:21:51.795Z,6.80
2019-02-10T12:24:18.519Z,6.80
2019-02-10T12:26:45.432Z,6.80
2019-02-10T12:29:12.009Z,6.70
2019-02-10T12:31:38.693Z,6.70
2019-02-10T12:34:05.662Z,6.70
2019-02-10T12:36:32.216Z,6.70
2019-02-10T12:38:59.181Z,6.70
2019-02-10T12:41:25.876Z,6.80
2019-02-10T12:43:52.608Z,6.80
2019-02-10T12:46:19.051Z,6.80
2019-02-10T12:48:45.771Z,6.70
2019-02-10T12:51:12.472Z,6.70
2019-02-10T12:53:39.160Z,6.70
2019-02-10T12:56:05.895Z,6.70
2019-02-10T12:58:32.574Z,6.60
2019-02-10T13:00:59.304Z,6.60
2019-02-10T13:03:26.236Z,6.60
2019-02-10T13:05:52.972Z,6.60
2019-02-10T13:08:19.421Z,6.70
2019-02-10T13:10:46.148Z,6.70
2019-02-10T13:13:19.143Z,6.70
2019-02-10T13:15:41.460Z,6.70
2019-02-10T13:18:08.388Z,6.70
2019-02-10T13:20:35.102Z,6.70
2019-02-10T13:23:01.652Z,6.70
2019-02-10T13:25:28.375Z,6.70
2019-02-10T13:27:55.068Z,6.70
2019-02-10T13:30:22.255Z,6.70
2019-02-10T13:32:48.704Z,6.70
2019-02-10T13:35:15.456Z,6.70
2019-02-10T13:37:41.907Z,6.70
2019-02-10T13:40:16.476Z,6.70
2019-02-10T13:42:39.172Z,6.70
2019-02-10T13:45:06.036Z,6.80
2019-02-10T13:47:32.711Z,6.80
2019-02-10T13:49:59.428Z,6.80
2019-02-10T13:52:26.145Z,6.80
2019-02-10T13:54:52.855Z,6.90
2019-02-10T13:57:20.020Z,6.90
2019-02-10T13:59:46.728Z,6.90
2019-02-10T14:02:13.661Z,6.90
2019-02-10T14:04:40.383Z,6.90
2019-02-10T14:07:06.847Z,7.00
2019-02-10T14:09:33.803Z,7.00
2019-02-10T14:12:00.748Z,7.00
2019-02-10T14:14:27.709Z,6.90
2019-02-10T14:16:54.632Z,6.90
2019-02-10T14:19:21.308Z,6.90
2019-02-10T14:21:48.012Z,6.90
2019-02-10T14:24:14.941Z,6.90
2019-02-10T14:26:41.879Z,6.90
2019-02-10T14:29:08.565Z,6.80
2019-02-10T14:31:35.308Z,6.80
2019-02-10T14:34:03.421Z,6.80
2019-02-10T14:36:30.083Z,6.70
2019-02-10T14:38:56.888Z,6.70
2019-02-10T14:41:23.852Z,6.70
2019-02-10T14:43:50.547Z,6.70
2019-02-10T14:46:17.261Z,6.70
2019-02-10T14:48:43.807Z,6.70
2019-02-10T14:51:10.517Z,6.70
2019-02-10T14:53:37.442Z,6.70
2019-02-10T14:56:04.163Z,6.80
2019-02-10T14:58:30.613Z,6.70
2019-02-10T15:00:57.740Z,6.70
2019-02-10T15:03:24.456Z,6.70
2019-02-10T15:05:50.932Z,6.70
2019-02-10T15:08:18.083Z,6.70
2019-02-10T15:10:44.563Z,6.70
2019-02-10T15:13:11.255Z,6.80
2019-02-10T15:15:37.733Z,6.80
2019-02-10T15:18:04.416Z,6.80
2019-02-10T15:20:30.900Z,6.80
2019-02-10T15:22:57.351Z,6.90
2019-02-10T15:25:24.093Z,6.90
2019-02-10T15:27:50.799Z,6.90
2019-02-10T15:30:17.636Z,6.90
2019-02-10T15:32:44.081Z,6.90
2019-02-10T15:35:10.640Z,6.90
2019-02-10T15:37:37.332Z,6.90
2019-02-10T15:40:04.141Z,7.00
2019-02-10T15:42:30.860Z,7.00
2019-02-10T15:44:57.309Z,7.00
2019-02-10T15:47:24.012Z,7.00
2019-02-10T15:49:50.688Z,7.10
2019-02-10T15:52:17.639Z,7.10
2019-02-10T15:54:44.439Z,7.20
2019-02-10T15:57:10.920Z,7.20
2019-02-10T15:59:37.616Z,7.20
2019-02-10T16:02:04.095Z,7.20
2019-02-10T16:04:31.029Z,7.20
2019-02-10T16:06:57.988Z,7.20
2019-02-10T16:09:24.439Z,7.30
2019-02-10T16:11:51.149Z,7.30
2019-02-10T16:14:17.597Z,7.30
2019-02-10T16:16:44.389Z,7.30
2019-02-10T16:19:10.836Z,7.30
2019-02-10T16:21:37.543Z,7.40
2019-02-10T16:24:04.245Z,7.40
2019-02-10T16:26:30.975Z,7.40
2019-02-10T16:28:57.893Z,7.40
2019-02-10T16:31:24.619Z,7.40
2019-02-10T16:33:51.102Z,7.40
2019-02-10T16:36:17.572Z,7.40
2019-02-10T16:38:44.272Z,7.40
2019-02-10T16:41:10.989Z,7.40
2019-02-10T16:43:38.143Z,7.40
2019-02-10T16:46:05.092Z,7.40
2019-02-10T16:48:31.548Z,7.50
2019-02-10T16:50:58.281Z,7.50
2019-02-10T16:53:24.980Z,7.50
2019-02-10T16:55:51.935Z,7.50
2019-02-10T16:58:18.386Z,7.50
2019-02-10T17:00:45.152Z,7.50
2019-02-10T17:03:11.631Z,7.40
2019-02-10T17:05:39.837Z,7.40
2019-02-10T17:08:06.708Z,7.40
2019-02-10T17:10:33.615Z,7.40
2019-02-10T17:13:00.575Z,7.40
2019-02-10T17:15:27.269Z,7.40
2019-02-10T17:17:53.752Z,7.40
2019-02-10T17:20:20.205Z,7.50
2019-02-10T17:22:46.912Z,7.50
2019-02-10T17:25:13.691Z,7.50
2019-02-10T17:27:40.167Z,7.50
2019-02-10T17:30:06.815Z,7.50
2019-02-10T17:32:33.524Z,7.50
2019-02-10T17:35:00.000Z,7.50
2019-02-10T17:37:26.724Z,7.50
2019-02-10T17:39:53.680Z,7.50
2019-02-10T17:42:20.160Z,7.50
2019-02-10T17:44:46.864Z,7.30
2019-02-10T17:47:13.340Z,7.20
2019-02-10T17:49:40.015Z,7.20
2019-02-10T17:52:06.742Z,7.10
2019-02-10T17:54:33.448Z,7.00
2019-02-10T17:56:59.932Z,6.90
2019-02-10T17:59:26.860Z,6.80
2019-02-10T18:01:53.585Z,6.70
2019-02-10T18:04:20.304Z,6.70
2019-02-10T18:06:47.031Z,6.70
2019-02-10T18:09:13.732Z,6.70
2019-02-10T18:11:40.304Z,6.60
2019-02-10T18:14:25.336Z,6.60
2019-02-10T18:16:59.557Z,6.50
2019-02-10T18:19:40.360Z,6.40
2019-02-10T18:22:25.247Z,6.40
2019-02-10T18:25:00.709Z,6.40
2019-02-10T18:27:47.687Z,6.30
2019-02-10T18:30:33.243Z,6.30
2019-02-10T18:33:22.826Z,6.30
2019-02-10T18:36:21.260Z,6.20
2019-02-10T18:39:06.092Z,6.20
2019-02-10T18:42:00.987Z,6.20
2019-02-10T18:44:51.239Z,6.10
2019-02-10T18:47:49.491Z,6.10
2019-02-10T18:50:35.632Z,6.20
2019-02-10T18:53:24.496Z,6.20
2019-02-10T18:56:03.564Z,6.30
2019-02-10T18:58:53.964Z,6.30
2019-02-10T19:01:35.671Z,6.20
2019-02-10T19:04:15.139Z,6.10
2019-02-10T19:07:07.104Z,6.10
2019-02-10T19:09:51.091Z,6.00
2019-02-10T19:12:36.089Z,5.70
2019-02-10T19:15:20.956Z,5.30
2019-02-10T19:17:56.371Z,5.10
2019-02-10T19:20:41.387Z,5.10
2019-02-10T19:23:19.518Z,5.10
2019-02-10T19:26:05.692Z,5.00
2019-02-10T19:28:52.111Z,5.00
2019-02-10T19:31:34.994Z,5.00
2019-02-10T19:34:20.088Z,5.00
2019-02-10T19:36:57.012Z,5.00
2019-02-10T19:39:36.812Z,4.90
2019-02-10T19:42:18.175Z,4.90
2019-02-10T19:44:56.672Z,4.90
2019-02-10T19:47:30.480Z,4.80
2019-02-10T19:50:15.825Z,4.80
2019-02-10T19:53:08.785Z,4.60
2019-02-10T19:55:44.783Z,4.50
2019-02-10T19:58:37.311Z,4.50
2019-02-10T20:01:21.717Z,4.50
2019-02-10T20:04:09.980Z,4.40
2019-02-10T20:06:51.297Z,4.40
2019-02-10T20:09:43.431Z,4.40
2019-02-10T20:12:18.080Z,4.30
2019-02-10T20:14:56.592Z,4.30
2019-02-10T20:17:30.278Z,4.30
2019-02-10T20:20:19.495Z,4.40
2019-02-10T20:23:13.276Z,4.50
2019-02-10T20:25:54.175Z,4.60
2019-02-10T20:28:33.783Z,4.70
2019-02-10T20:31:11.667Z,4.80
2019-02-10T20:34:13.108Z,4.90
2019-02-10T20:36:55.015Z,4.90
2019-02-10T20:39:45.715Z,4.90
2019-02-10T20:42:18.351Z,4.90
2019-02-10T20:45:13.496Z,4.90
2019-02-10T20:47:58.047Z,4.80
2019-02-10T20:50:42.762Z,4.90
2019-02-10T20:53:28.906Z,4.80
2019-02-10T20:56:15.916Z,4.70
2019-02-10T20:58:51.687Z,4.70
2019-02-10T21:01:36.308Z,4.70
2019-02-10T21:04:09.922Z,4.60
2019-02-10T21:06:46.156Z,4.60
2019-02-10T21:09:22.520Z,4.60
2019-02-10T21:12:03.895Z,4.50
2019-02-10T21:14:39.864Z,4.50
2019-02-10T21:17:24.352Z,4.50
2019-02-10T21:20:04.156Z,4.50
2019-02-10T21:22:53.091Z,4.50
2019-02-10T21:25:26.409Z,4.40
2019-02-10T21:28:08.272Z,4.40
2019-02-10T21:30:47.495Z,4.40
2019-02-10T21:33:20.587Z,4.40
2019-02-10T21:36:01.020Z,4.40
2019-02-10T21:38:45.412Z,4.40
2019-02-10T21:41:34.772Z,4.50
2019-02-10T21:44:19.484Z,4.50
2019-02-10T21:46:56.939Z,4.50
2019-02-10T21:49:24.972Z,4.50
2019-02-10T21:51:51.751Z,4.50
2019-02-10T21:54:18.711Z,4.50
2019-02-10T21:56:45.164Z,4.50
2019-02-10T21:59:11.880Z,4.50
2019-02-10T22:01:38.584Z,4.50
2019-02-10T22:04:05.056Z,4.50
2019-02-10T22:06:31.733Z,4.50
2019-02-10T22:08:58.219Z,4.40
2019-02-10T22:11:24.670Z,4.40
2019-02-10T22:13:51.388Z,4.40
2019-02-10T22:16:17.840Z,4.40
2019-02-10T22:18:45.052Z,4.40
2019-02-10T22:21:11.737Z,4.30
2019-02-10T22:23:38.440Z,4.30
2019-02-10T22:26:05.243Z,4.30
2019-02-10T22:28:31.720Z,4.30
2019-02-10T22:30:58.644Z,4.30
2019-02-10T22:33:25.119Z,4.30
2019-02-10T22:35:51.799Z,4.30
2019-02-10T22:38:18.759Z,4.30
2019-02-10T22:40:45.916Z,4.30
2019-02-10T22:43:12.833Z,4.20
2019-02-10T22:45:39.544Z,4.20
2019-02-10T22:48:06.246Z,4.10
2019-02-10T22:50:32.951Z,4.00
2019-02-10T22:52:59.631Z,4.00
2019-02-10T22:55:26.116Z,3.90
2019-02-10T22:57:52.571Z,3.80
2019-02-10T23:00:42.016Z,3.70
2019-02-10T23:03:08.560Z,3.60
2019-02-10T23:05:35.300Z,3.40
2019-02-10T23:08:02.039Z,3.30
2019-02-10T23:10:28.769Z,3.20
2019-02-10T23:12:55.220Z,3.00
2019-02-10T23:15:21.692Z,2.90
2019-02-10T23:17:48.393Z,2.80
2019-02-10T23:20:15.122Z,2.80
2019-02-10T23:22:41.684Z,2.70
2019-02-10T23:25:08.384Z,2.60
2019-02-10T23:27:34.832Z,2.60
2019-02-10T23:30:01.315Z,2.50
2019-02-10T23:32:28.001Z,2.50
2019-02-10T23:34:54.483Z,2.50
2019-02-10T23:37:21.035Z,2.50
2019-02-10T23:39:47.513Z,2.50
2019-02-10T23:42:14.520Z,2.50
2019-02-10T23:44:41.225Z,2.40
2019-02-10T23:47:08.147Z,2.40
2019-02-10T23:49:34.856Z,2.40
2019-02-10T23:52:01.500Z,2.40
2019-02-10T23:54:27.975Z,2.40
2019-02-10T23:56:54.428Z,2.40
2019-02-10T23:59:21.140Z,2.30
